Terminal Aerodrome Forecast
Issued by NWS Lubbock, TX

Home | Current Version | Previous Version | Text Only | Print | Product List | Glossary On
Versions: 1 2 3 4 5 6 7 8 9 10 11 12 13 14 15 16 17 18 19 20 21 22 23 24 25 26 27 28 29 30
000
FTUS44 KLUB 201200 AAC
TAFLBB
TAF AMD
KLBB 201218Z 2012/2112 VRB05KT 6SM BR FEW025 SCT200
      TEMPO 2012/2014 1SM BR
     FM201500 16005KT P6SM SCT035 BKN050 BKN150
     FM211000 VRB06KT P6SM FEW030 BKN180=

USA.gov is the U.S. government's official web portal to all federal, state and local government web resources and services.